sensor_id;sensor_type;location;lat;lon;timestamp;pressure;altitude;pressure_sealevel;temperature;humidity
21300;BME280;10809;49.476;11.016;2022-07-30T00:01:07;98191.19;;;21.21;58.30
21300;BME280;10809;49.476;11.016;2022-07-30T00:03:38;98195.72;;;21.20;58.29
21300;BME280;10809;49.476;11.016;2022-07-30T00:06:08;98200.28;;;21.20;58.38
21300;BME280;10809;49.476;11.016;2022-07-30T00:08:38;98192.22;;;21.20;58.67
21300;BME280;10809;49.476;11.016;2022-07-30T00:11:08;98189.53;;;21.20;58.88
21300;BME280;10809;49.476;11.016;2022-07-30T00:13:41;98188.66;;;21.19;58.78
21300;BME280;10809;49.476;11.016;2022-07-30T00:16:11;98182.25;;;21.20;58.79
21300;BME280;10809;49.476;11.016;2022-07-30T00:18:41;98185.97;;;21.19;58.33
21300;BME280;10809;49.476;11.016;2022-07-30T00:21:12;98188.66;;;21.19;58.76
21300;BME280;10809;49.476;11.016;2022-07-30T00:23:42;98188.81;;;21.18;58.59
21300;BME280;10809;49.476;11.016;2022-07-30T00:26:12;98186.28;;;21.16;58.79
21300;BME280;10809;49.476;11.016;2022-07-30T00:28:43;98190.81;;;21.16;58.92
21300;BME280;10809;49.476;11.016;2022-07-30T00:31:13;98190.97;;;21.14;58.64
21300;BME280;10809;49.476;11.016;2022-07-30T00:33:44;98183.03;;;21.13;58.70
21300;BME280;10809;49.476;11.016;2022-07-30T00:36:14;98185.88;;;21.11;58.73
21300;BME280;10809;49.476;11.016;2022-07-30T00:38:44;98187.03;;;21.09;58.71
21300;BME280;10809;49.476;11.016;2022-07-30T00:41:15;98189.03;;;21.07;58.71
21300;BME280;10809;49.476;11.016;2022-07-30T00:43:45;98188.34;;;21.05;58.71
21300;BME280;10809;49.476;11.016;2022-07-30T00:46:15;98193.88;;;21.03;58.89
21300;BME280;10809;49.476;11.016;2022-07-30T00:48:46;98193.19;;;21.01;58.44
21300;BME280;10809;49.476;11.016;2022-07-30T00:51:16;98197.88;;;20.99;58.77
21300;BME280;10809;49.476;11.016;2022-07-30T00:53:47;98193.66;;;20.97;58.60
21300;BME280;10809;49.476;11.016;2022-07-30T00:56:18;98205.53;;;20.94;58.85
21300;BME280;10809;49.476;11.016;2022-07-30T00:58:48;98204.00;;;20.92;58.81
21300;BME280;10809;49.476;11.016;2022-07-30T01:01:19;98202.47;;;20.89;58.90
21300;BME280;10809;49.476;11.016;2022-07-30T01:03:50;98208.81;;;20.88;58.95
21300;BME280;10809;49.476;11.016;2022-07-30T01:06:20;98208.31;;;20.85;58.95
21300;BME280;10809;49.476;11.016;2022-07-30T01:08:51;98201.34;;;20.82;58.83
21300;BME280;10809;49.476;11.016;2022-07-30T01:11:27;98202.66;;;20.78;58.72
21300;BME280;10809;49.476;11.016;2022-07-30T01:14:08;98208.34;;;20.75;58.82
21300;BME280;10809;49.476;11.016;2022-07-30T01:16:40;98203.28;;;20.72;58.88
21300;BME280;10809;49.476;11.016;2022-07-30T01:19:27;98204.59;;;20.68;58.92
21300;BME280;10809;49.476;11.016;2022-07-30T01:27:43;98200.78;;;20.61;58.92
21300;BME280;10809;49.476;11.016;2022-07-30T01:30:18;98207.47;;;20.57;59.03
21300;BME280;10809;49.476;11.016;2022-07-30T01:32:50;98202.41;;;20.54;59.12
21300;BME280;10809;49.476;11.016;2022-07-30T01:35:23;98204.38;;;20.52;59.45
21300;BME280;10809;49.476;11.016;2022-07-30T01:37:56;98207.38;;;20.49;59.17
21300;BME280;10809;49.476;11.016;2022-07-30T01:40:28;98202.28;;;20.46;59.33
21300;BME280;10809;49.476;11.016;2022-07-30T01:43:01;98209.66;;;20.44;59.11
21300;BME280;10809;49.476;11.016;2022-07-30T01:45:33;98208.13;;;20.42;59.20
21300;BME280;10809;49.476;11.016;2022-07-30T01:48:05;98212.78;;;20.40;59.33
21300;BME280;10809;49.476;11.016;2022-07-30T01:50:41;98210.25;;;20.38;59.39
21300;BME280;10809;49.476;11.016;2022-07-30T01:53:18;98215.78;;;20.37;59.62
21300;BME280;10809;49.476;11.016;2022-07-30T01:55:50;98214.25;;;20.34;59.81
21300;BME280;10809;49.476;11.016;2022-07-30T01:58:25;98217.78;;;20.35;59.36
21300;BME280;10809;49.476;11.016;2022-07-30T02:00:59;98218.63;;;20.35;59.82
21300;BME280;10809;49.476;11.016;2022-07-30T02:03:30;98215.09;;;20.35;59.71
21300;BME280;10809;49.476;11.016;2022-07-30T02:06:16;98216.06;;;20.34;59.89
21300;BME280;10809;49.476;11.016;2022-07-30T02:08:54;98213.22;;;20.35;59.71
21300;BME280;10809;49.476;11.016;2022-07-30T02:11:27;98214.09;;;20.36;59.61
21300;BME280;10809;49.476;11.016;2022-07-30T02:14:21;98206.88;;;20.36;59.78
21300;BME280;10809;49.476;11.016;2022-07-30T02:16:55;98210.53;;;20.35;59.92
21300;BME280;10809;49.476;11.016;2022-07-30T02:19:32;98219.63;;;20.34;59.57
21300;BME280;10809;49.476;11.016;2022-07-30T02:22:10;98210.00;;;20.32;59.70
21300;BME280;10809;49.476;11.016;2022-07-30T02:24:42;98214.69;;;20.30;59.88
21300;BME280;10809;49.476;11.016;2022-07-30T02:27:22;98210.59;;;20.26;59.59
21300;BME280;10809;49.476;11.016;2022-07-30T02:29:57;98212.44;;;20.25;59.81
21300;BME280;10809;49.476;11.016;2022-07-30T02:32:34;98217.06;;;20.23;59.67
21300;BME280;10809;49.476;11.016;2022-07-30T02:35:14;98216.41;;;20.21;59.82
21300;BME280;10809;49.476;11.016;2022-07-30T02:37:48;98213.00;;;20.19;59.75
21300;BME280;10809;49.476;11.016;2022-07-30T02:40:21;98212.13;;;20.19;59.86
21300;BME280;10809;49.476;11.016;2022-07-30T02:42:52;98210.75;;;20.15;59.68
21300;BME280;10809;49.476;11.016;2022-07-30T02:45:28;98212.88;;;20.11;59.74
21300;BME280;10809;49.476;11.016;2022-07-30T02:48:05;98214.03;;;20.09;59.76
21300;BME280;10809;49.476;11.016;2022-07-30T02:50:38;98208.94;;;20.06;59.89
21300;BME280;10809;49.476;11.016;2022-07-30T02:53:11;98206.56;;;20.03;60.04
21300;BME280;10809;49.476;11.016;2022-07-30T02:55:46;98214.06;;;19.99;59.88
21300;BME280;10809;49.476;11.016;2022-07-30T02:58:19;98214.34;;;19.96;59.95
21300;BME280;10809;49.476;11.016;2022-07-30T03:00:53;98210.94;;;19.94;60.14
21300;BME280;10809;49.476;11.016;2022-07-30T03:03:25;98208.53;;;19.91;60.26
21300;BME280;10809;49.476;11.016;2022-07-30T03:06:00;98208.84;;;19.88;60.21
21300;BME280;10809;49.476;11.016;2022-07-30T03:08:32;98210.84;;;19.86;60.50
21300;BME280;10809;49.476;11.016;2022-07-30T03:11:03;98205.63;;;19.85;60.23
21300;BME280;10809;49.476;11.016;2022-07-30T03:13:34;98209.41;;;19.82;60.47
21300;BME280;10809;49.476;11.016;2022-07-30T03:16:08;98211.44;;;19.80;60.48
21300;BME280;10809;49.476;11.016;2022-07-30T03:18:41;98200.81;;;19.78;60.41
21300;BME280;10809;49.476;11.016;2022-07-30T03:21:12;98211.72;;;19.77;60.68
21300;BME280;10809;49.476;11.016;2022-07-30T03:23:45;98206.63;;;19.74;60.65
21300;BME280;10809;49.476;11.016;2022-07-30T03:26:18;98211.16;;;19.73;60.34
21300;BME280;10809;49.476;11.016;2022-07-30T03:28:51;98212.31;;;19.71;60.70
21300;BME280;10809;49.476;11.016;2022-07-30T03:31:22;98213.41;;;19.68;60.67
21300;BME280;10809;49.476;11.016;2022-07-30T03:33:54;98222.47;;;19.67;60.68
21300;BME280;10809;49.476;11.016;2022-07-30T03:36:25;98224.44;;;19.65;60.63
21300;BME280;10809;49.476;11.016;2022-07-30T03:38:55;98227.28;;;19.64;60.37
21300;BME280;10809;49.476;11.016;2022-07-30T03:41:26;98220.50;;;19.60;60.57
21300;BME280;10809;49.476;11.016;2022-07-30T03:43:58;98227.84;;;19.58;60.61
21300;BME280;10809;49.476;11.016;2022-07-30T03:46:35;98234.50;;;19.54;60.55
21300;BME280;10809;49.476;11.016;2022-07-30T03:49:08;98231.09;;;19.52;60.44
21300;BME280;10809;49.476;11.016;2022-07-30T03:51:40;98237.75;;;19.48;60.61
21300;BME280;10809;49.476;11.016;2022-07-30T03:54:11;98238.84;;;19.45;60.46
21300;BME280;10809;49.476;11.016;2022-07-30T03:56:44;98247.03;;;19.44;60.71
21300;BME280;10809;49.476;11.016;2022-07-30T03:59:41;98236.59;;;19.41;60.71
21300;BME280;10809;49.476;11.016;2022-07-30T04:02:12;98237.88;;;19.37;60.71
21300;BME280;10809;49.476;11.016;2022-07-30T04:05:01;98240.69;;;19.35;60.88
21300;BME280;10809;49.476;11.016;2022-07-30T04:07:31;98246.22;;;19.34;60.91
21300;BME280;10809;49.476;11.016;2022-07-30T04:10:01;98247.34;;;19.31;60.89
21300;BME280;10809;49.476;11.016;2022-07-30T04:12:48;98235.91;;;19.29;60.87
21300;BME280;10809;49.476;11.016;2022-07-30T04:15:19;98244.22;;;19.26;61.05
21300;BME280;10809;49.476;11.016;2022-07-30T04:17:57;98250.75;;;19.24;60.95
21300;BME280;10809;49.476;11.016;2022-07-30T04:20:33;98260.63;;;19.23;61.22
21300;BME280;10809;49.476;11.016;2022-07-30T04:23:08;98266.13;;;19.22;61.17
21300;BME280;10809;49.476;11.016;2022-07-30T04:25:39;98269.69;;;19.22;61.32
21300;BME280;10809;49.476;11.016;2022-07-30T04:28:11;98267.13;;;19.21;61.37
21300;BME280;10809;49.476;11.016;2022-07-30T04:30:42;98268.09;;;19.20;61.29
21300;BME280;10809;49.476;11.016;2022-07-30T04:33:13;98266.28;;;19.20;61.53
21300;BME280;10809;49.476;11.016;2022-07-30T04:36:08;98267.13;;;19.21;61.17
21300;BME280;10809;49.476;11.016;2022-07-30T04:38:41;98269.97;;;19.19;61.49
21300;BME280;10809;49.476;11.016;2022-07-30T04:41:11;98273.47;;;19.20;61.39
21300;BME280;10809;49.476;11.016;2022-07-30T04:44:02;98271.66;;;19.20;61.43
21300;BME280;10809;49.476;11.016;2022-07-30T04:46:35;98267.97;;;19.21;61.76
21300;BME280;10809;49.476;11.016;2022-07-30T04:49:05;98286.63;;;19.23;61.68
21300;BME280;10809;49.476;11.016;2022-07-30T04:51:37;98274.06;;;19.23;61.99
21300;BME280;10809;49.476;11.016;2022-07-30T04:54:10;98274.78;;;19.25;61.73
21300;BME280;10809;49.476;11.016;2022-07-30T04:56:45;98281.69;;;19.28;61.78
21300;BME280;10809;49.476;11.016;2022-07-30T04:59:17;98283.22;;;19.30;61.78
21300;BME280;10809;49.476;11.016;2022-07-30T05:01:49;98282.13;;;19.33;62.09
21300;BME280;10809;49.476;11.016;2022-07-30T05:04:22;98283.81;;;19.34;61.93
21300;BME280;10809;49.476;11.016;2022-07-30T05:06:55;98288.19;;;19.35;61.89
21300;BME280;10809;49.476;11.016;2022-07-30T05:09:28;98290.88;;;19.35;61.79
21300;BME280;10809;49.476;11.016;2022-07-30T05:12:00;98302.47;;;19.35;61.71
21300;BME280;10809;49.476;11.016;2022-07-30T05:14:30;98299.91;;;19.34;61.56
21300;BME280;10809;49.476;11.016;2022-07-30T05:17:01;98305.44;;;19.32;61.68
21300;BME280;10809;49.476;11.016;2022-07-30T05:19:32;98298.50;;;19.30;61.68
21300;BME280;10809;49.476;11.016;2022-07-30T05:22:03;98296.09;;;19.27;61.77
21300;BME280;10809;49.476;11.016;2022-07-30T05:24:37;98297.06;;;19.26;61.85
21300;BME280;10809;49.476;11.016;2022-07-30T05:27:08;98303.44;;;19.25;62.11
21300;BME280;10809;49.476;11.016;2022-07-30T05:29:38;98308.81;;;19.25;62.13
21300;BME280;10809;49.476;11.016;2022-07-30T05:32:16;98311.50;;;19.25;62.34
21300;BME280;10809;49.476;11.016;2022-07-30T05:34:46;98311.50;;;19.25;62.41
21300;BME280;10809;49.476;11.016;2022-07-30T05:37:17;98320.28;;;19.27;62.35
21300;BME280;10809;49.476;11.016;2022-07-30T05:39:47;98326.47;;;19.27;62.37
21300;BME280;10809;49.476;11.016;2022-07-30T05:42:40;98321.97;;;19.28;62.27
21300;BME280;10809;49.476;11.016;2022-07-30T05:45:11;98327.31;;;19.28;62.59
21300;BME280;10809;49.476;11.016;2022-07-30T05:47:43;98326.34;;;19.29;62.37
21300;BME280;10809;49.476;11.016;2022-07-30T05:50:14;98321.97;;;19.28;62.43
21300;BME280;10809;49.476;11.016;2022-07-30T05:52:48;98321.09;;;19.27;62.49
21300;BME280;10809;49.476;11.016;2022-07-30T05:55:56;98325.38;;;19.30;62.37
21300;BME280;10809;49.476;11.016;2022-07-30T05:59:03;98336.94;;;19.30;62.30
21300;BME280;10809;49.476;11.016;2022-07-30T06:01:52;98328.75;;;19.32;62.84
21300;BME280;10809;49.476;11.016;2022-07-30T06:04:29;98326.78;;;19.34;62.63
21300;BME280;10809;49.476;11.016;2022-07-30T06:07:05;98331.88;;;19.37;62.85
21300;BME280;10809;49.476;11.016;2022-07-30T06:09:36;98322.53;;;19.41;63.08
21300;BME280;10809;49.476;11.016;2022-07-30T06:12:07;98326.50;;;19.46;62.74
21300;BME280;10809;49.476;11.016;2022-07-30T06:14:38;98326.13;;;19.51;62.55
21300;BME280;10809;49.476;11.016;2022-07-30T06:17:10;98320.19;;;19.57;62.27
21300;BME280;10809;49.476;11.016;2022-07-30T06:20:12;98321.59;;;19.61;62.31
21300;BME280;10809;49.476;11.016;2022-07-30T06:23:04;98323.03;;;19.65;62.18
21300;BME280;10809;49.476;11.016;2022-07-30T06:25:49;98330.81;;;19.68;62.39
21300;BME280;10809;49.476;11.016;2022-07-30T06:28:20;98334.19;;;19.70;62.11
21300;BME280;10809;49.476;11.016;2022-07-30T06:30:50;98324.16;;;19.72;62.02
21300;BME280;10809;49.476;11.016;2022-07-30T06:33:22;98321.19;;;19.75;62.67
21300;BME280;10809;49.476;11.016;2022-07-30T06:35:53;98325.25;;;19.79;62.47
21300;BME280;10809;49.476;11.016;2022-07-30T06:38:28;98330.94;;;19.86;62.67
21300;BME280;10809;49.476;11.016;2022-07-30T06:41:05;98324.97;;;19.92;62.45
21300;BME280;10809;49.476;11.016;2022-07-30T06:43:48;98333.19;;;20.00;62.40
21300;BME280;10809;49.476;11.016;2022-07-30T06:46:36;98322.69;;;20.06;61.78
21300;BME280;10809;49.476;11.016;2022-07-30T06:49:07;98306.97;;;20.11;62.04
21300;BME280;10809;49.476;11.016;2022-07-30T06:51:38;98310.66;;;20.20;62.33
21300;BME280;10809;49.476;11.016;2022-07-30T06:54:08;98314.34;;;20.28;61.96
21300;BME280;10809;49.476;11.016;2022-07-30T06:56:57;98316.28;;;20.36;61.75
21300;BME280;10809;49.476;11.016;2022-07-30T06:59:28;98319.25;;;20.42;61.59
21300;BME280;10809;49.476;11.016;2022-07-30T07:02:11;98322.47;;;20.46;61.12
21300;BME280;10809;49.476;11.016;2022-07-30T07:05:20;98324.72;;;20.50;60.67
21300;BME280;10809;49.476;11.016;2022-07-30T07:07:51;98329.13;;;20.51;60.76
21300;BME280;10809;49.476;11.016;2022-07-30T07:10:24;98328.13;;;20.52;60.55
21300;BME280;10809;49.476;11.016;2022-07-30T07:13:03;98318.38;;;20.51;59.92
21300;BME280;10809;49.476;11.016;2022-07-30T07:15:33;98323.75;;;20.51;60.19
21300;BME280;10809;49.476;11.016;2022-07-30T07:18:04;98326.44;;;20.51;60.42
21300;BME280;10809;49.476;11.016;2022-07-30T07:20:41;98324.72;;;20.50;60.10
21300;BME280;10809;49.476;11.016;2022-07-30T07:23:13;98336.22;;;20.52;60.38
21300;BME280;10809;49.476;11.016;2022-07-30T07:25:44;98342.44;;;20.53;60.14
21300;BME280;10809;49.476;11.016;2022-07-30T07:28:16;98338.03;;;20.52;60.04
21300;BME280;10809;49.476;11.016;2022-07-30T07:30:51;98333.81;;;20.49;60.18
21300;BME280;10809;49.476;11.016;2022-07-30T07:33:21;98344.72;;;20.48;60.26
21300;BME280;10809;49.476;11.016;2022-07-30T07:35:52;98345.72;;;20.47;60.92
21300;BME280;10809;49.476;11.016;2022-07-30T07:38:30;98341.72;;;20.51;60.89
21300;BME280;10809;49.476;11.016;2022-07-30T07:41:01;98343.69;;;20.58;61.41
21300;BME280;10809;49.476;11.016;2022-07-30T07:43:32;98342.81;;;20.67;60.96
21300;BME280;10809;49.476;11.016;2022-07-30T07:46:05;98349.03;;;20.77;60.22
21300;BME280;10809;49.476;11.016;2022-07-30T07:48:37;98344.59;;;20.86;60.14
21300;BME280;10809;49.476;11.016;2022-07-30T07:51:21;98353.75;;;20.93;60.00
21300;BME280;10809;49.476;11.016;2022-07-30T07:53:52;98346.25;;;20.96;59.93
21300;BME280;10809;49.476;11.016;2022-07-30T07:56:22;98355.03;;;20.98;60.08
21300;BME280;10809;49.476;11.016;2022-07-30T07:58:54;98352.22;;;21.00;59.09
21300;BME280;10809;49.476;11.016;2022-07-30T08:01:25;98352.06;;;21.01;59.11
21300;BME280;10809;49.476;11.016;2022-07-30T08:04:27;98352.88;;;21.02;59.52
21300;BME280;10809;49.476;11.016;2022-07-30T08:07:16;98352.06;;;21.01;58.95
21300;BME280;10809;49.476;11.016;2022-07-30T08:10:05;98353.75;;;21.02;58.75
21300;BME280;10809;49.476;11.016;2022-07-30T08:12:58;98367.22;;;21.02;59.32
21300;BME280;10809;49.476;11.016;2022-07-30T08:15:49;98361.97;;;21.01;58.68
21300;BME280;10809;49.476;11.016;2022-07-30T08:18:38;98357.75;;;20.98;58.64
21300;BME280;10809;49.476;11.016;2022-07-30T08:21:40;98360.72;;;20.95;58.76
21300;BME280;10809;49.476;11.016;2022-07-30T08:24:11;98369.06;;;20.92;59.13
21300;BME280;10809;49.476;11.016;2022-07-30T08:26:42;98361.28;;;20.89;58.71
21300;BME280;10809;49.476;11.016;2022-07-30T08:29:13;98361.44;;;20.88;58.87
21300;BME280;10809;49.476;11.016;2022-07-30T08:31:44;98358.75;;;20.88;58.54
21300;BME280;10809;49.476;11.016;2022-07-30T08:34:15;98362.13;;;20.90;59.22
21300;BME280;10809;49.476;11.016;2022-07-30T08:36:47;98364.66;;;20.91;59.70
21300;BME280;10809;49.476;11.016;2022-07-30T08:39:18;98372.44;;;20.94;59.01
21300;BME280;10809;49.476;11.016;2022-07-30T08:41:49;98365.97;;;20.97;59.23
21300;BME280;10809;49.476;11.016;2022-07-30T08:44:20;98369.34;;;20.99;59.02
21300;BME280;10809;49.476;11.016;2022-07-30T08:46:55;98374.41;;;21.02;59.22
21300;BME280;10809;49.476;11.016;2022-07-30T08:49:38;98374.13;;;21.05;59.37
21300;BME280;10809;49.476;11.016;2022-07-30T08:52:09;98378.25;;;21.09;59.68
21300;BME280;10809;49.476;11.016;2022-07-30T08:54:59;98375.09;;;21.13;58.77
21300;BME280;10809;49.476;11.016;2022-07-30T08:57:31;98379.31;;;21.16;58.77
21300;BME280;10809;49.476;11.016;2022-07-30T09:00:05;98387.97;;;21.19;58.64
21300;BME280;10809;49.476;11.016;2022-07-30T09:02:36;98393.91;;;21.23;58.65
21300;BME280;10809;49.476;11.016;2022-07-30T09:05:09;98390.91;;;21.26;58.60
21300;BME280;10809;49.476;11.016;2022-07-30T09:07:39;98386.06;;;21.29;59.03
21300;BME280;10809;49.476;11.016;2022-07-30T09:10:15;98391.53;;;21.37;59.37
21300;BME280;10809;49.476;11.016;2022-07-30T09:12:52;98388.50;;;21.50;59.45
21300;BME280;10809;49.476;11.016;2022-07-30T09:15:27;98388.09;;;21.63;59.79
21300;BME280;10809;49.476;11.016;2022-07-30T09:18:00;98394.44;;;21.81;59.24
21300;BME280;10809;49.476;11.016;2022-07-30T09:20:35;98385.31;;;21.99;58.83
21300;BME280;10809;49.476;11.016;2022-07-30T09:23:09;98394.38;;;22.16;58.61
21300;BME280;10809;49.476;11.016;2022-07-30T09:25:58;98387.47;;;22.31;57.91
21300;BME280;10809;49.476;11.016;2022-07-30T09:28:50;98393.31;;;22.44;57.15
21300;BME280;10809;49.476;11.016;2022-07-30T09:32:06;98393.22;;;22.53;57.29
21300;BME280;10809;49.476;11.016;2022-07-30T09:35:13;98395.66;;;22.64;57.28
21300;BME280;10809;49.476;11.016;2022-07-30T09:38:16;98392.69;;;22.75;56.17
21300;BME280;10809;49.476;11.016;2022-07-30T09:41:30;98396.16;;;22.85;55.96
21300;BME280;10809;49.476;11.016;2022-07-30T09:44:22;98383.84;;;22.91;55.82
21300;BME280;10809;49.476;11.016;2022-07-30T09:46:54;98379.34;;;22.99;54.85
21300;BME280;10809;49.476;11.016;2022-07-30T09:49:30;98379.41;;;23.07;54.98
21300;BME280;10809;49.476;11.016;2022-07-30T09:52:01;98392.97;;;23.16;54.83
21300;BME280;10809;49.476;11.016;2022-07-30T09:54:49;98381.50;;;23.22;55.13
21300;BME280;10809;49.476;11.016;2022-07-30T09:57:24;98395.53;;;23.25;53.89
21300;BME280;10809;49.476;11.016;2022-07-30T09:59:55;98380.69;;;23.29;53.60
21300;BME280;10809;49.476;11.016;2022-07-30T10:02:30;98379.34;;;23.33;53.49
21300;BME280;10809;49.476;11.016;2022-07-30T10:05:20;98384.25;;;23.38;53.25
21300;BME280;10809;49.476;11.016;2022-07-30T10:07:53;98386.94;;;23.38;53.03
21300;BME280;10809;49.476;11.016;2022-07-30T10:10:30;98379.16;;;23.35;53.20
21300;BME280;10809;49.476;11.016;2022-07-30T10:13:03;98379.34;;;23.33;53.07
21300;BME280;10809;49.476;11.016;2022-07-30T10:15:35;98379.16;;;23.35;52.97
21300;BME280;10809;49.476;11.016;2022-07-30T10:18:10;98379.69;;;23.38;53.42
21300;BME280;10809;49.476;11.016;2022-07-30T10:21:01;98380.88;;;23.44;52.59
21300;BME280;10809;49.476;11.016;2022-07-30T10:23:53;98385.16;;;23.46;51.82
21300;BME280;10809;49.476;11.016;2022-07-30T10:26:43;98378.72;;;23.47;51.41
21300;BME280;10809;49.476;11.016;2022-07-30T10:29:43;98371.97;;;23.43;51.12
21300;BME280;10809;49.476;11.016;2022-07-30T10:32:14;98375.00;;;23.40;51.07
21300;BME280;10809;49.476;11.016;2022-07-30T10:34:45;98373.28;;;23.39;51.90
21300;BME280;10809;49.476;11.016;2022-07-30T10:37:16;98368.41;;;23.43;51.73
21300;BME280;10809;49.476;11.016;2022-07-30T10:48:49;98366.47;;;23.69;50.96
21300;BME280;10809;49.476;11.016;2022-07-30T10:51:41;98362.59;;;23.71;51.47
21300;BME280;10809;49.476;11.016;2022-07-30T10:57:14;98364.94;;;23.74;50.75
21300;BME280;10809;49.476;11.016;2022-07-30T11:02:20;98362.94;;;23.76;49.50
21300;BME280;10809;49.476;11.016;2022-07-30T11:07:46;98364.94;;;23.74;49.65
21300;BME280;10809;49.476;11.016;2022-07-30T11:10:34;98363.59;;;23.70;50.14
21300;BME280;10809;49.476;11.016;2022-07-30T11:13:07;98376.75;;;23.65;49.01
21300;BME280;10809;49.476;11.016;2022-07-30T11:15:58;98367.94;;;23.55;49.57
21300;BME280;10809;49.476;11.016;2022-07-30T11:18:28;98369.59;;;23.48;48.58
21300;BME280;10809;49.476;11.016;2022-07-30T11:21:21;98367.22;;;23.37;49.72
21300;BME280;10809;49.476;11.016;2022-07-30T11:23:54;98367.16;;;23.29;48.77
21300;BME280;10809;49.476;11.016;2022-07-30T11:29:36;98366.94;;;23.14;49.58
21300;BME280;10809;49.476;11.016;2022-07-30T11:32:29;98359.84;;;23.13;50.05
21300;BME280;10809;49.476;11.016;2022-07-30T11:35:22;98369.47;;;23.16;50.05
21300;BME280;10809;49.476;11.016;2022-07-30T11:38:12;98354.47;;;23.22;50.61
21300;BME280;10809;49.476;11.016;2022-07-30T11:43:27;98344.06;;;23.43;49.33
21300;BME280;10809;49.476;11.016;2022-07-30T11:46:30;98350.53;;;23.58;49.87
21300;BME280;10809;49.476;11.016;2022-07-30T11:49:02;98349.06;;;23.71;48.82
21300;BME280;10809;49.476;11.016;2022-07-30T11:51:44;98339.78;;;23.82;48.62
21300;BME280;10809;49.476;11.016;2022-07-30T11:54:15;98349.94;;;23.88;47.53
21300;BME280;10809;49.476;11.016;2022-07-30T11:56:55;98343.34;;;23.90;47.95
21300;BME280;10809;49.476;11.016;2022-07-30T11:59:28;98350.44;;;23.91;47.56
21300;BME280;10809;49.476;11.016;2022-07-30T12:01:58;98348.94;;;23.89;47.94
21300;BME280;10809;49.476;11.016;2022-07-30T12:04:30;98340.13;;;23.87;48.13
21300;BME280;10809;49.476;11.016;2022-07-30T12:07:01;98349.28;;;23.86;47.68
21300;BME280;10809;49.476;11.016;2022-07-30T12:09:31;98343.16;;;23.84;47.59
21300;BME280;10809;49.476;11.016;2022-07-30T12:12:22;98342.66;;;23.80;48.07
21300;BME280;10809;49.476;11.016;2022-07-30T12:14:53;98342.81;;;23.79;47.80
21300;BME280;10809;49.476;11.016;2022-07-30T12:17:48;98350.44;;;23.75;47.99
21300;BME280;10809;49.476;11.016;2022-07-30T12:20:19;98351.75;;;23.71;47.17
21300;BME280;10809;49.476;11.016;2022-07-30T12:22:50;98351.56;;;23.65;46.39
21300;BME280;10809;49.476;11.016;2022-07-30T12:25:21;98371.31;;;23.57;46.41
21300;BME280;10809;49.476;11.016;2022-07-30T12:27:51;98370.59;;;23.47;48.95
21300;BME280;10809;49.476;11.016;2022-07-30T12:30:22;98372.94;;;23.34;49.72
21300;BME280;10809;49.476;11.016;2022-07-30T12:32:53;98376.59;;;23.17;49.91
21300;BME280;10809;49.476;11.016;2022-07-30T12:35:41;98365.47;;;22.94;50.07
21300;BME280;10809;49.476;11.016;2022-07-30T12:38:16;98365.53;;;22.77;51.12
21300;BME280;10809;49.476;11.016;2022-07-30T12:40:57;98357.50;;;22.59;51.76
21300;BME280;10809;49.476;11.016;2022-07-30T12:43:53;98350.13;;;22.44;52.01
21300;BME280;10809;49.476;11.016;2022-07-30T12:46:25;98347.53;;;22.34;53.44
21300;BME280;10809;49.476;11.016;2022-07-30T12:49:02;98350.16;;;22.26;53.15
21300;BME280;10809;49.476;11.016;2022-07-30T12:51:49;98354.00;;;22.24;53.44
21300;BME280;10809;49.476;11.016;2022-07-30T12:54:29;98344.38;;;22.21;53.80
21300;BME280;10809;49.476;11.016;2022-07-30T12:57:04;98335.13;;;22.24;54.03
21300;BME280;10809;49.476;11.016;2022-07-30T12:59:34;98330.97;;;22.29;54.20
21300;BME280;10809;49.476;11.016;2022-07-30T13:02:07;98324.66;;;22.38;55.06
21300;BME280;10809;49.476;11.016;2022-07-30T13:04:49;98324.19;;;22.51;54.11
21300;BME280;10809;49.476;11.016;2022-07-30T13:07:19;98311.28;;;22.62;53.68
21300;BME280;10809;49.476;11.016;2022-07-30T13:10:08;98311.69;;;22.75;53.59
21300;BME280;10809;49.476;11.016;2022-07-30T13:12:39;98324.06;;;22.86;52.29
21300;BME280;10809;49.476;11.016;2022-07-30T13:15:16;98316.00;;;22.94;52.35
21300;BME280;10809;49.476;11.016;2022-07-30T13:17:49;98318.09;;;23.00;51.14
21300;BME280;10809;49.476;11.016;2022-07-30T13:20:20;98320.47;;;23.03;50.98
21300;BME280;10809;49.476;11.016;2022-07-30T13:22:54;98316.25;;;23.08;49.96
21300;BME280;10809;49.476;11.016;2022-07-30T13:25:24;98322.00;;;23.13;49.73
21300;BME280;10809;49.476;11.016;2022-07-30T13:28:16;98324.44;;;23.25;50.41
21300;BME280;10809;49.476;11.016;2022-07-30T13:30:47;98319.72;;;23.35;49.54
21300;BME280;10809;49.476;11.016;2022-07-30T13:33:23;98319.25;;;23.47;49.36
21300;BME280;10809;49.476;11.016;2022-07-30T13:35:54;98318.25;;;23.56;48.33
21300;BME280;10809;49.476;11.016;2022-07-30T13:38:26;98306.47;;;23.65;47.75
21300;BME280;10809;49.476;11.016;2022-07-30T13:40:56;98312.91;;;23.72;47.47
21300;BME280;10809;49.476;11.016;2022-07-30T13:43:27;98311.06;;;23.81;47.39
21300;BME280;10809;49.476;11.016;2022-07-30T13:45:57;98301.75;;;23.91;45.95
21300;BME280;10809;49.476;11.016;2022-07-30T13:48:28;98307.16;;;23.99;45.65
21300;BME280;10809;49.476;11.016;2022-07-30T13:51:03;98303.44;;;24.08;46.03
21300;BME280;10809;49.476;11.016;2022-07-30T13:53:33;98307.31;;;24.14;45.29
21300;BME280;10809;49.476;11.016;2022-07-30T13:56:04;98306.81;;;24.18;44.86
21300;BME280;10809;49.476;11.016;2022-07-30T13:58:34;98306.63;;;24.20;45.53
21300;BME280;10809;49.476;11.016;2022-07-30T14:01:05;98299.22;;;24.22;44.69
21300;BME280;10809;49.476;11.016;2022-07-30T14:03:38;98288.38;;;24.22;43.73
21300;BME280;10809;49.476;11.016;2022-07-30T14:06:08;98289.53;;;24.19;43.45